Webcam Meteoipassi more information Webcam Meteoipassi


Pisa torre orologio more information Pisa torre orologio


avvertimento per Neve / Ghiaccio more information rain snow radar


altri nostri siti meteo:

Pomeziameteo 1Sito sul meteo

Pomeziameteo DashboardSito sul meteo

Caput FrigorisSito sul meteo

BarcellonameteoSito sul meteo

MeteoipassiSito sul meteo

ViterbometeoSito sul meteo

MeteotortoretoSito sul meteo

TortoretometeolidoSito sul meteo

MeteoGonzagaSito sul meteo



Pioggia Inizio validita dal: 22-02-2018 19:00 Fino: 23:59 Allerta per: Pioggia Livello: Giallo info button
Vento Inizio validita dal: 21-02-2018 12:00 Fino: 22-02-2018 23:59 Allerta per: Vento Livello: Giallo info button
Neve/Ghiaccio Inizio validita dal: 21-02-2018 20:00 Fino: 22-02-2018 23:59 Allerta per: Neve/Ghiaccio Livello: Giallo info button

Report METAR

   
LIRQ - Firenze
Dati ricevuti: Feb 22 2018 3:20 am
Molto nuvoloso  
Molto nuvoloso  
   Vento: W 7.4 km/h
Vento: W 7.4 km/h
Temperatura: 5°C
Temperatura Vento: 3°C
P.to Rugiada: 1°C
Umidita: 76%
Barometro: 1003 hPa
Nuvole: Molto nuvoloso
Visibilita: oltre 10 km
dettagli cloud: Poche nuvole 1066.8 m,
Molto nuvoloso 1828.8 m
LIRQ 220220Z 24004KT 140V290 9999 FEW035 BKN060 05/01 Q1003
LIRP - Lucca
Dati ricevuti: Feb 22 2018 3:15 am
Molto nuvoloso  
Molto nuvoloso  
   Vento: SE 14.8 km/h
Vento: SE 14.8 km/h
Temperatura: 6°C
Temperatura Vento: 3°C
P.to Rugiada: 4°C
Umidita: 87%
Barometro: 1003 hPa
Nuvole: Molto nuvoloso
Visibilita: oltre 10 km
dettagli cloud: Parzialmente nuvoloso 1524 m,
Molto nuvoloso 2133.6 m
LIRP 220215Z 11008KT 9999 SCT050 BKN070 06/04 Q1003 NOSIG
LIRP - Livorno
Dati ricevuti: Feb 22 2018 3:15 am
Molto nuvoloso  
Molto nuvoloso  
   Vento: SE 14.8 km/h
Vento: SE 14.8 km/h
Temperatura: 6°C
Temperatura Vento: 3°C
P.to Rugiada: 4°C
Umidita: 87%
Barometro: 1003 hPa
Nuvole: Molto nuvoloso
Visibilita: oltre 10 km
dettagli cloud: Parzialmente nuvoloso 1524 m,
Molto nuvoloso 2133.6 m
LIRP 220215Z 11008KT 9999 SCT050 BKN070 06/04 Q1003 NOSIG
LIMP - Parma
Dati ricevuti: Feb 21 2018 10:50 pm
DATI Obsoleti
Molto nuvoloso  
Molto nuvoloso  
   Vento: Variabile 3.7 km/h
Vento: Variabile 3.7 km/h
Temperatura: 4°C
P.to Rugiada: 1°C
Umidita: 81%
Barometro: 1008 hPa
Nuvole: Molto nuvoloso
Visibilita: 7 km
dettagli cloud: Molto nuvoloso 1524 m
LIMP 212150Z VRB02KT 7000 BKN050 04/01 Q1008
LIRF - Roma
Dati ricevuti: Feb 22 2018 3:20 am
Parzialmente nuvoloso  
Parzialmente nuvoloso  
   Vento: NE 11.1 km/h
Vento: NE 11.1 km/h
Temperatura: 5°C
Temperatura Vento: 2°C
P.to Rugiada: 2°C
Umidita: 81%
Barometro: 1001 hPa
Nuvole: Parzialmente nuvoloso
Visibilita: oltre 10 km
dettagli cloud: Parzialmente nuvoloso 1524 m
LIRF 220220Z 05006KT 9999 SCT050 05/02 Q1001 NOSIG
 

Script sviluppato da  Saratoga-weather.org Adattato per il modello da  Weerstation Leuven

Potete trovare le nostre info meteo anche a:

European Weather Network

Weather Underground

AWEKAS

HAMweather, WeatherForYou, PWS Weather

Strumentazione usata:

Stazione meteo
Oregon Scientific WMR88

Programma gestore dati meteo
WVIEW

Server per i dati meteo
WDS-5

Provider
Anemos WDS-5

Oregon Scientific WMR88

WVIEW

WDS-5

Anemos WDS-5